createdAt,value
2023-03-29T00:03:08.063Z,80.10
2023-03-29T00:08:07.922Z,80.86
2023-03-29T00:13:07.990Z,81.03
2023-03-29T00:18:07.848Z,80.44
2023-03-29T00:23:07.788Z,79.79
2023-03-29T00:28:07.762Z,80.04
2023-03-29T00:33:07.715Z,80.10
2023-03-29T00:38:07.572Z,78.34
2023-03-29T00:43:07.795Z,79.07
2023-03-29T00:48:07.586Z,78.45
2023-03-29T00:53:07.461Z,79.27
2023-03-29T00:58:07.348Z,78.55
2023-03-29T01:03:07.453Z,78.24
2023-03-29T01:08:07.268Z,78.52
2023-03-29T01:13:07.233Z,78.31
2023-03-29T01:18:07.304Z,78.24
2023-03-29T01:23:07.127Z,78.00
2023-03-29T01:28:07.057Z,77.48
2023-03-29T01:33:07.021Z,77.59
2023-03-29T01:38:06.957Z,77.69
2023-03-29T01:43:06.949Z,77.48
2023-03-29T01:48:06.988Z,77.69
2023-03-29T01:53:06.737Z,77.94
2023-03-29T01:58:06.858Z,76.73
2023-03-29T02:18:36.317Z,78.00
2023-03-29T02:23:32.965Z,76.76
2023-03-29T02:28:32.939Z,77.55
2023-03-29T02:33:32.881Z,76.73
2023-03-29T02:38:36.385Z,76.53
2023-03-29T02:43:32.909Z,77.04
2023-03-29T02:48:32.675Z,77.51
2023-03-29T02:53:32.762Z,76.83
2023-03-29T02:58:32.790Z,76.42
2023-03-29T03:03:32.802Z,76.70
2023-03-29T03:08:32.688Z,76.90
2023-03-29T03:13:32.513Z,77.21
2023-03-29T03:18:32.508Z,77.25
2023-03-29T03:23:32.402Z,76.83
2023-03-29T03:28:32.257Z,76.90
2023-03-29T03:33:32.273Z,76.59
2023-03-29T03:38:32.187Z,76.07
2023-03-29T03:43:32.120Z,76.59
2023-03-29T03:48:32.184Z,76.59
2023-03-29T03:53:32.054Z,78.03
2023-03-29T03:58:32.014Z,77.83
2023-03-29T04:03:32.035Z,77.42
2023-03-29T04:08:31.832Z,77.58
2023-03-29T04:13:31.795Z,78.10
2023-03-29T04:18:31.986Z,79.13
2023-03-29T04:23:31.874Z,78.44
2023-03-29T04:28:31.720Z,78.34
2023-03-29T04:33:31.599Z,78.41
2023-03-29T04:38:31.514Z,79.13
2023-03-29T04:43:31.529Z,79.68
2023-03-29T04:48:31.604Z,79.88
2023-03-29T04:53:31.400Z,81.23
2023-03-29T04:58:32.520Z,79.79
2023-03-29T05:03:31.231Z,80.81
2023-03-29T05:08:31.480Z,83.84
2023-03-29T05:13:31.267Z,84.77
2023-03-29T05:18:31.079Z,85.59
2023-03-29T05:23:31.013Z,86.00
2023-03-29T05:28:31.167Z,87.17
2023-03-29T05:33:30.938Z,88.62
2023-03-29T05:38:30.815Z,86.68
2023-03-29T05:43:30.852Z,87.69
2023-03-29T05:48:30.778Z,87.81
2023-03-29T05:53:30.776Z,87.09
2023-03-29T05:58:30.711Z,86.74
2023-03-29T06:03:30.712Z,87.15
2023-03-29T06:08:30.494Z,86.70
2023-03-29T06:13:30.485Z,86.19
2023-03-29T06:18:30.356Z,86.08
2023-03-29T06:23:30.344Z,86.60
2023-03-29T06:28:30.318Z,86.56
2023-03-29T06:33:30.211Z,86.97
2023-03-29T06:38:30.192Z,86.97
2023-03-29T06:43:30.193Z,86.66
2023-03-29T06:48:31.155Z,86.32
2023-03-29T06:53:30.040Z,85.84
2023-03-29T06:58:29.936Z,85.35
2023-03-29T07:03:29.884Z,83.85
2023-03-29T07:08:29.833Z,83.87
2023-03-29T07:13:29.790Z,83.05
2023-03-29T07:18:29.774Z,82.23
2023-03-29T07:23:29.736Z,81.27
2023-03-29T07:28:29.718Z,80.79
2023-03-29T07:33:29.654Z,79.80
2023-03-29T07:38:29.550Z,80.10
2023-03-29T07:43:29.513Z,78.25
2023-03-29T07:48:29.519Z,77.64
2023-03-29T07:53:29.419Z,78.46
2023-03-29T07:58:29.317Z,78.16
2023-03-29T08:03:29.353Z,76.17
2023-03-29T08:08:29.232Z,76.20
2023-03-29T08:13:30.140Z,75.99
2023-03-29T08:18:29.124Z,76.61
2023-03-29T08:23:29.072Z,75.48
2023-03-29T08:28:29.100Z,74.63
2023-03-29T08:33:28.942Z,73.20
2023-03-29T08:38:28.982Z,74.43
2023-03-29T08:43:28.852Z,76.72
2023-03-29T08:48:28.836Z,76.68
2023-03-29T08:53:28.710Z,75.68
2023-03-29T08:58:28.622Z,76.75
2023-03-29T09:03:28.694Z,74.80
2023-03-29T09:08:28.529Z,75.89
2023-03-29T09:13:28.478Z,74.59
2023-03-29T09:18:28.348Z,74.76
2023-03-29T09:23:28.421Z,74.32
2023-03-29T09:28:28.345Z,74.55
2023-03-29T09:33:28.214Z,72.92
2023-03-29T09:38:28.168Z,74.59
2023-03-29T09:43:28.113Z,74.90
2023-03-29T09:48:28.017Z,74.42
2023-03-29T09:53:28.040Z,76.56
2023-03-29T09:58:28.029Z,76.60
2023-03-29T10:03:27.892Z,77.34
2023-03-29T10:08:27.828Z,74.21
2023-03-29T10:13:27.836Z,74.25
2023-03-29T10:18:27.731Z,71.64
2023-03-29T10:23:27.646Z,70.34
2023-03-29T10:28:27.648Z,73.02
2023-03-29T10:33:27.543Z,72.89
2023-03-29T10:38:27.497Z,70.65
2023-03-29T10:43:27.462Z,71.84
2023-03-29T10:48:27.432Z,70.65
2023-03-29T10:53:27.275Z,68.35
2023-03-29T10:58:27.253Z,66.56
2023-03-29T11:03:27.453Z,67.03
2023-03-29T11:08:29.011Z,64.98
2023-03-29T11:13:27.087Z,63.90
2023-03-29T11:18:27.063Z,63.96
2023-03-29T11:23:26.976Z,66.05
2023-03-29T11:28:26.954Z,64.64
2023-03-29T11:33:26.904Z,63.75
2023-03-29T11:38:26.824Z,63.21
2023-03-29T11:43:26.819Z,60.89
2023-03-29T11:48:26.727Z,60.87
2023-03-29T11:53:26.704Z,59.33
2023-03-29T11:58:26.593Z,60.44
2023-03-29T12:03:26.592Z,61.20
2023-03-29T12:08:26.544Z,60.46
2023-03-29T12:13:26.464Z,59.69
2023-03-29T12:18:26.422Z,62.19
2023-03-29T12:23:26.381Z,63.92
2023-03-29T12:28:26.263Z,61.73
2023-03-29T12:33:26.231Z,62.87
2023-03-29T12:38:27.638Z,64.38
2023-03-29T12:43:26.141Z,64.35
2023-03-29T12:48:26.103Z,63.21
2023-03-29T12:53:25.991Z,62.67
2023-03-29T12:58:25.973Z,63.61
2023-03-29T13:03:25.918Z,63.10
2023-03-29T13:08:25.910Z,63.89
2023-03-29T13:13:25.788Z,64.32
2023-03-29T13:18:25.764Z,64.25
2023-03-29T13:23:25.654Z,63.58
2023-03-29T13:28:25.667Z,63.02
2023-03-29T13:33:25.550Z,61.98
2023-03-29T13:38:25.476Z,63.55
2023-03-29T13:43:25.494Z,63.55
2023-03-29T13:48:25.420Z,62.82
2023-03-29T13:53:25.375Z,61.98
2023-03-29T13:58:25.309Z,62.22
2023-03-29T14:03:25.246Z,61.79
2023-03-29T14:08:25.174Z,60.68
2023-03-29T14:13:25.172Z,60.02
2023-03-29T14:18:25.079Z,59.28
2023-03-29T14:23:25.032Z,59.62
2023-03-29T14:28:24.967Z,60.69
2023-03-29T14:33:24.918Z,61.89
2023-03-29T14:38:24.879Z,61.49
2023-03-29T14:43:24.822Z,60.88
2023-03-29T14:48:24.893Z,60.98
2023-03-29T14:53:24.696Z,61.82
2023-03-29T14:58:24.646Z,61.69
2023-03-29T15:03:24.649Z,59.64
2023-03-29T15:08:24.583Z,59.92
2023-03-29T15:13:24.827Z,59.34
2023-03-29T15:18:24.521Z,60.58
2023-03-29T15:23:24.449Z,62.02
2023-03-29T15:28:24.335Z,60.45
2023-03-29T15:33:24.526Z,61.08
2023-03-29T15:38:33.151Z,61.43
2023-03-29T15:43:25.194Z,60.55
2023-03-29T15:48:24.077Z,60.88
2023-03-29T15:53:24.139Z,61.59
2023-03-29T15:58:24.173Z,61.72
2023-03-29T16:03:24.073Z,62.65
2023-03-29T16:08:23.966Z,62.02
2023-03-29T16:13:23.845Z,61.44
2023-03-29T16:18:23.862Z,62.02
2023-03-29T16:23:23.803Z,61.92
2023-03-29T16:28:23.821Z,61.92
2023-03-29T16:33:23.576Z,62.48
2023-03-29T16:38:23.526Z,64.23
2023-03-29T16:43:23.521Z,63.93
2023-03-29T16:48:23.453Z,63.73
2023-03-29T16:53:23.437Z,64.97
2023-03-29T16:58:23.321Z,65.24
2023-03-29T17:03:23.278Z,65.14
2023-03-29T17:08:23.338Z,66.89
2023-03-29T17:13:23.174Z,65.78
2023-03-29T17:18:24.211Z,66.18
2023-03-29T17:23:23.087Z,66.28
2023-03-29T17:28:22.942Z,65.78
2023-03-29T17:33:22.997Z,65.14
2023-03-29T17:38:22.920Z,65.78
2023-03-29T17:43:22.950Z,66.11
2023-03-29T17:48:22.796Z,66.21
2023-03-29T17:53:22.712Z,66.01
2023-03-29T17:58:22.734Z,65.88
2023-03-29T18:03:22.909Z,67.12
2023-03-29T18:08:22.923Z,67.52
2023-03-29T18:13:23.695Z,67.32
2023-03-29T18:18:22.507Z,68.03
2023-03-29T18:23:22.592Z,68.74
2023-03-29T18:28:22.336Z,69.04
2023-03-29T18:33:22.445Z,70.73
2023-03-29T18:38:23.310Z,71.44
2023-03-29T18:43:22.290Z,71.73
2023-03-29T18:48:22.252Z,71.84
2023-03-29T18:53:22.120Z,72.44
2023-03-29T18:58:22.085Z,72.44
2023-03-29T19:03:22.103Z,73.25
2023-03-29T19:08:21.870Z,73.56
2023-03-29T19:13:21.952Z,73.86
2023-03-29T19:18:21.766Z,73.66
2023-03-29T19:23:21.753Z,73.72
2023-03-29T19:28:21.788Z,73.96
2023-03-29T19:33:21.674Z,73.46
2023-03-29T19:38:21.629Z,73.76
2023-03-29T19:43:21.486Z,73.15
2023-03-29T19:48:23.337Z,73.56
2023-03-29T19:53:21.522Z,73.36
2023-03-29T19:58:21.352Z,73.90
2023-03-29T20:03:22.401Z,73.66
2023-03-29T20:08:21.397Z,73.59
2023-03-29T20:13:31.560Z,73.09
2023-03-29T20:18:22.117Z,73.39
2023-03-29T20:23:21.065Z,74.44
2023-03-29T20:28:21.197Z,74.64
2023-03-29T20:33:21.046Z,74.33
2023-03-29T20:38:21.064Z,75.08
2023-03-29T20:43:29.648Z,75.08
2023-03-29T20:48:20.781Z,74.77
2023-03-29T20:53:20.880Z,74.88
2023-03-29T20:58:20.632Z,74.17
2023-03-29T21:03:20.647Z,74.71
2023-03-29T21:08:20.471Z,74.27
2023-03-29T21:13:20.430Z,74.21
2023-03-29T21:18:20.410Z,73.76
2023-03-29T21:23:20.320Z,74.30
2023-03-29T21:28:20.260Z,74.10
2023-03-29T21:33:20.342Z,73.25
2023-03-29T21:38:20.191Z,73.80
2023-03-29T21:43:20.201Z,73.93
2023-03-29T21:48:20.106Z,74.24
2023-03-29T21:53:20.015Z,73.19
2023-03-29T21:58:20.025Z,72.78
2023-03-29T22:03:19.910Z,72.17
2023-03-29T22:08:19.919Z,72.38
2023-03-29T22:13:19.781Z,72.17
2023-03-29T22:18:19.719Z,72.01
2023-03-29T22:23:19.683Z,71.57
2023-03-29T22:28:19.685Z,72.31
2023-03-29T22:33:19.579Z,70.76
2023-03-29T22:38:19.507Z,70.56
2023-03-29T22:43:19.445Z,69.51
2023-03-29T22:48:19.477Z,69.31
2023-03-29T22:53:19.353Z,70.28
2023-03-29T22:58:19.317Z,69.74
2023-03-29T23:03:19.277Z,70.39
2023-03-29T23:08:19.196Z,71.03
2023-03-29T23:13:19.115Z,71.23
2023-03-29T23:18:19.164Z,72.52
2023-03-29T23:23:19.003Z,72.62
2023-03-29T23:28:18.937Z,72.82
2023-03-29T23:33:18.932Z,71.88
2023-03-29T23:38:18.825Z,71.91
2023-03-29T23:43:18.817Z,72.01
2023-03-29T23:48:18.722Z,72.31
2023-03-29T23:53:18.748Z,73.60
2023-03-29T23:58:18.613Z,72.96
